sensor_id;sensor_type;location;lat;lon;timestamp;P1;durP1;ratioP1;P2;durP2;ratioP2
51495;SDS011;37572;52.094;4.870;2024-03-06T00:02:22;33.40;;;21.27;;
51495;SDS011;37572;52.094;4.870;2024-03-06T00:04:47;31.93;;;20.83;;
51495;SDS011;37572;52.094;4.870;2024-03-06T00:07:12;32.28;;;22.40;;
51495;SDS011;37572;52.094;4.870;2024-03-06T00:09:38;38.13;;;23.30;;
51495;SDS011;37572;52.094;4.870;2024-03-06T00:12:03;35.43;;;22.70;;
51495;SDS011;37572;52.094;4.870;2024-03-06T00:14:29;38.63;;;23.52;;
51495;SDS011;37572;52.094;4.870;2024-03-06T00:16:54;39.05;;;24.23;;
51495;SDS011;37572;52.094;4.870;2024-03-06T00:19:22;38.42;;;23.42;;
51495;SDS011;37572;52.094;4.870;2024-03-06T00:21:48;46.58;;;28.40;;
51495;SDS011;37572;52.094;4.870;2024-03-06T00:24:14;44.63;;;28.38;;
51495;SDS011;37572;52.094;4.870;2024-03-06T00:26:40;45.70;;;29.60;;
51495;SDS011;37572;52.094;4.870;2024-03-06T00:29:07;46.20;;;28.55;;
51495;SDS011;37572;52.094;4.870;2024-03-06T00:31:32;47.53;;;27.65;;
51495;SDS011;37572;52.094;4.870;2024-03-06T00:33:57;44.47;;;28.17;;
51495;SDS011;37572;52.094;4.870;2024-03-06T00:36:23;48.07;;;29.87;;
51495;SDS011;37572;52.094;4.870;2024-03-06T00:38:48;48.75;;;29.38;;
51495;SDS011;37572;52.094;4.870;2024-03-06T00:41:13;49.22;;;29.65;;
51495;SDS011;37572;52.094;4.870;2024-03-06T00:43:39;46.17;;;27.40;;
51495;SDS011;37572;52.094;4.870;2024-03-06T00:46:04;48.60;;;27.92;;
51495;SDS011;37572;52.094;4.870;2024-03-06T00:48:30;43.42;;;27.55;;
51495;SDS011;37572;52.094;4.870;2024-03-06T00:50:55;45.37;;;27.13;;
51495;SDS011;37572;52.094;4.870;2024-03-06T00:53:20;42.20;;;27.70;;
51495;SDS011;37572;52.094;4.870;2024-03-06T00:55:46;45.47;;;28.13;;
51495;SDS011;37572;52.094;4.870;2024-03-06T00:58:11;37.17;;;24.60;;
51495;SDS011;37572;52.094;4.870;2024-03-06T01:00:37;48.00;;;28.47;;
51495;SDS011;37572;52.094;4.870;2024-03-06T01:03:03;44.38;;;25.95;;
51495;SDS011;37572;52.094;4.870;2024-03-06T01:05:28;43.65;;;25.75;;
51495;SDS011;37572;52.094;4.870;2024-03-06T01:07:54;44.10;;;27.37;;
51495;SDS011;37572;52.094;4.870;2024-03-06T01:10:19;39.72;;;24.92;;
51495;SDS011;37572;52.094;4.870;2024-03-06T01:12:45;43.70;;;27.52;;
51495;SDS011;37572;52.094;4.870;2024-03-06T01:15:10;45.22;;;29.45;;
51495;SDS011;37572;52.094;4.870;2024-03-06T01:17:36;41.40;;;26.50;;
51495;SDS011;37572;52.094;4.870;2024-03-06T01:20:01;45.97;;;27.57;;
51495;SDS011;37572;52.094;4.870;2024-03-06T01:22:28;42.45;;;25.92;;
51495;SDS011;37572;52.094;4.870;2024-03-06T01:24:54;46.87;;;27.43;;
51495;SDS011;37572;52.094;4.870;2024-03-06T01:27:19;43.70;;;29.10;;
51495;SDS011;37572;52.094;4.870;2024-03-06T01:29:44;45.37;;;27.43;;
51495;SDS011;37572;52.094;4.870;2024-03-06T01:32:09;46.97;;;31.33;;
51495;SDS011;37572;52.094;4.870;2024-03-06T01:34:35;46.97;;;28.50;;
51495;SDS011;37572;52.094;4.870;2024-03-06T01:37:00;51.17;;;29.08;;
51495;SDS011;37572;52.094;4.870;2024-03-06T01:39:26;48.28;;;31.10;;
51495;SDS011;37572;52.094;4.870;2024-03-06T01:41:51;48.83;;;29.53;;
51495;SDS011;37572;52.094;4.870;2024-03-06T01:44:17;49.10;;;28.45;;
51495;SDS011;37572;52.094;4.870;2024-03-06T01:46:43;48.95;;;28.25;;
51495;SDS011;37572;52.094;4.870;2024-03-06T01:49:09;49.75;;;28.20;;
51495;SDS011;37572;52.094;4.870;2024-03-06T01:51:36;47.75;;;28.33;;
51495;SDS011;37572;52.094;4.870;2024-03-06T01:54:02;50.70;;;27.33;;
51495;SDS011;37572;52.094;4.870;2024-03-06T01:56:35;49.50;;;27.83;;
51495;SDS011;37572;52.094;4.870;2024-03-06T01:59:03;44.72;;;27.60;;
51495;SDS011;37572;52.094;4.870;2024-03-06T02:01:29;45.78;;;27.75;;
51495;SDS011;37572;52.094;4.870;2024-03-06T02:03:55;47.08;;;27.55;;
51495;SDS011;37572;52.094;4.870;2024-03-06T02:06:21;48.70;;;26.88;;
51495;SDS011;37572;52.094;4.870;2024-03-06T02:08:47;48.35;;;28.55;;
51495;SDS011;37572;52.094;4.870;2024-03-06T02:11:12;48.37;;;29.90;;
51495;SDS011;37572;52.094;4.870;2024-03-06T02:13:38;46.70;;;27.92;;
51495;SDS011;37572;52.094;4.870;2024-03-06T02:16:04;52.58;;;27.63;;
51495;SDS011;37572;52.094;4.870;2024-03-06T02:18:30;48.95;;;29.50;;
51495;SDS011;37572;52.094;4.870;2024-03-06T02:20:56;48.80;;;27.00;;
51495;SDS011;37572;52.094;4.870;2024-03-06T02:23:21;48.10;;;28.73;;
51495;SDS011;37572;52.094;4.870;2024-03-06T02:25:47;50.67;;;28.63;;
51495;SDS011;37572;52.094;4.870;2024-03-06T02:28:13;51.35;;;28.67;;
51495;SDS011;37572;52.094;4.870;2024-03-06T02:30:38;50.10;;;29.98;;
51495;SDS011;37572;52.094;4.870;2024-03-06T02:33:04;49.15;;;27.77;;
51495;SDS011;37572;52.094;4.870;2024-03-06T02:35:32;48.42;;;28.58;;
51495;SDS011;37572;52.094;4.870;2024-03-06T02:38:00;54.93;;;29.07;;
51495;SDS011;37572;52.094;4.870;2024-03-06T02:40:26;54.92;;;31.38;;
51495;SDS011;37572;52.094;4.870;2024-03-06T02:42:51;54.95;;;31.00;;
51495;SDS011;37572;52.094;4.870;2024-03-06T02:45:17;54.10;;;30.67;;
51495;SDS011;37572;52.094;4.870;2024-03-06T02:47:42;54.23;;;31.60;;
51495;SDS011;37572;52.094;4.870;2024-03-06T02:50:09;55.17;;;30.88;;
51495;SDS011;37572;52.094;4.870;2024-03-06T02:52:35;57.45;;;32.35;;
51495;SDS011;37572;52.094;4.870;2024-03-06T02:55:01;57.33;;;32.45;;
51495;SDS011;37572;52.094;4.870;2024-03-06T02:57:27;57.15;;;31.48;;
51495;SDS011;37572;52.094;4.870;2024-03-06T02:59:53;58.35;;;32.90;;
51495;SDS011;37572;52.094;4.870;2024-03-06T03:02:19;54.38;;;32.05;;
51495;SDS011;37572;52.094;4.870;2024-03-06T03:04:45;57.35;;;31.30;;
51495;SDS011;37572;52.094;4.870;2024-03-06T03:07:10;55.93;;;31.70;;
51495;SDS011;37572;52.094;4.870;2024-03-06T03:09:35;57.67;;;34.63;;
51495;SDS011;37572;52.094;4.870;2024-03-06T03:12:01;61.45;;;30.63;;
51495;SDS011;37572;52.094;4.870;2024-03-06T03:14:26;56.95;;;32.28;;
51495;SDS011;37572;52.094;4.870;2024-03-06T03:16:52;60.00;;;35.63;;
51495;SDS011;37572;52.094;4.870;2024-03-06T03:19:18;57.28;;;29.95;;
51495;SDS011;37572;52.094;4.870;2024-03-06T03:21:44;56.40;;;32.25;;
51495;SDS011;37572;52.094;4.870;2024-03-06T03:24:10;58.75;;;31.80;;
51495;SDS011;37572;52.094;4.870;2024-03-06T03:26:35;56.17;;;30.90;;
51495;SDS011;37572;52.094;4.870;2024-03-06T03:29:02;60.85;;;32.85;;
51495;SDS011;37572;52.094;4.870;2024-03-06T03:31:27;56.80;;;31.05;;
51495;SDS011;37572;52.094;4.870;2024-03-06T03:33:53;55.70;;;31.65;;
51495;SDS011;37572;52.094;4.870;2024-03-06T03:36:18;59.53;;;32.73;;
51495;SDS011;37572;52.094;4.870;2024-03-06T03:38:43;61.63;;;33.07;;
51495;SDS011;37572;52.094;4.870;2024-03-06T03:41:09;58.33;;;32.90;;
51495;SDS011;37572;52.094;4.870;2024-03-06T03:43:35;55.30;;;30.40;;
51495;SDS011;37572;52.094;4.870;2024-03-06T03:46:00;61.55;;;32.15;;
51495;SDS011;37572;52.094;4.870;2024-03-06T03:48:26;57.65;;;34.90;;
51495;SDS011;37572;52.094;4.870;2024-03-06T03:50:51;59.27;;;30.60;;
51495;SDS011;37572;52.094;4.870;2024-03-06T03:53:16;58.83;;;32.63;;
51495;SDS011;37572;52.094;4.870;2024-03-06T03:55:41;56.00;;;30.75;;
51495;SDS011;37572;52.094;4.870;2024-03-06T03:58:07;55.30;;;29.37;;
51495;SDS011;37572;52.094;4.870;2024-03-06T04:00:32;55.70;;;33.20;;
51495;SDS011;37572;52.094;4.870;2024-03-06T04:02:58;55.20;;;32.13;;
51495;SDS011;37572;52.094;4.870;2024-03-06T04:05:23;62.95;;;33.20;;
51495;SDS011;37572;52.094;4.870;2024-03-06T04:07:50;54.63;;;30.40;;
51495;SDS011;37572;52.094;4.870;2024-03-06T04:10:16;55.45;;;30.98;;
51495;SDS011;37572;52.094;4.870;2024-03-06T04:12:41;59.63;;;31.80;;
51495;SDS011;37572;52.094;4.870;2024-03-06T04:15:07;58.22;;;32.28;;
51495;SDS011;37572;52.094;4.870;2024-03-06T04:17:33;58.17;;;32.03;;
51495;SDS011;37572;52.094;4.870;2024-03-06T04:19:59;58.38;;;31.63;;
51495;SDS011;37572;52.094;4.870;2024-03-06T04:22:25;56.57;;;32.47;;
51495;SDS011;37572;52.094;4.870;2024-03-06T04:24:51;61.95;;;32.15;;
51495;SDS011;37572;52.094;4.870;2024-03-06T04:27:16;60.35;;;33.38;;
51495;SDS011;37572;52.094;4.870;2024-03-06T04:29:41;56.07;;;32.13;;
51495;SDS011;37572;52.094;4.870;2024-03-06T04:32:07;62.58;;;33.97;;
51495;SDS011;37572;52.094;4.870;2024-03-06T04:34:32;57.70;;;33.20;;
51495;SDS011;37572;52.094;4.870;2024-03-06T04:36:57;56.23;;;31.93;;
51495;SDS011;37572;52.094;4.870;2024-03-06T04:39:23;58.33;;;31.27;;
51495;SDS011;37572;52.094;4.870;2024-03-06T04:41:48;59.47;;;32.17;;
51495;SDS011;37572;52.094;4.870;2024-03-06T04:44:14;58.47;;;33.10;;
51495;SDS011;37572;52.094;4.870;2024-03-06T04:46:39;63.45;;;34.53;;
51495;SDS011;37572;52.094;4.870;2024-03-06T04:49:04;62.07;;;35.63;;
51495;SDS011;37572;52.094;4.870;2024-03-06T04:51:31;65.57;;;35.80;;
51495;SDS011;37572;52.094;4.870;2024-03-06T04:53:56;66.00;;;33.17;;
51495;SDS011;37572;52.094;4.870;2024-03-06T04:56:22;59.92;;;33.25;;
51495;SDS011;37572;52.094;4.870;2024-03-06T04:58:47;66.43;;;36.30;;
51495;SDS011;37572;52.094;4.870;2024-03-06T05:01:13;63.20;;;33.22;;
51495;SDS011;37572;52.094;4.870;2024-03-06T05:03:38;65.22;;;35.00;;
51495;SDS011;37572;52.094;4.870;2024-03-06T05:06:04;62.92;;;33.42;;
51495;SDS011;37572;52.094;4.870;2024-03-06T05:08:30;66.13;;;33.55;;
51495;SDS011;37572;52.094;4.870;2024-03-06T05:10:56;61.63;;;31.95;;
51495;SDS011;37572;52.094;4.870;2024-03-06T05:13:21;60.78;;;34.40;;
51495;SDS011;37572;52.094;4.870;2024-03-06T05:15:47;64.97;;;33.13;;
51495;SDS011;37572;52.094;4.870;2024-03-06T05:18:12;60.17;;;31.95;;
51495;SDS011;37572;52.094;4.870;2024-03-06T05:20:37;65.47;;;32.30;;
51495;SDS011;37572;52.094;4.870;2024-03-06T05:23:03;66.57;;;34.20;;
51495;SDS011;37572;52.094;4.870;2024-03-06T05:25:28;64.05;;;33.28;;
51495;SDS011;37572;52.094;4.870;2024-03-06T05:27:54;60.43;;;32.90;;
51495;SDS011;37572;52.094;4.870;2024-03-06T05:30:19;64.00;;;35.33;;
51495;SDS011;37572;52.094;4.870;2024-03-06T05:32:44;61.67;;;32.07;;
51495;SDS011;37572;52.094;4.870;2024-03-06T05:35:11;64.90;;;33.58;;
51495;SDS011;37572;52.094;4.870;2024-03-06T05:37:37;57.15;;;32.25;;
51495;SDS011;37572;52.094;4.870;2024-03-06T05:40:02;61.63;;;33.35;;
51495;SDS011;37572;52.094;4.870;2024-03-06T05:42:31;61.63;;;32.28;;
51495;SDS011;37572;52.094;4.870;2024-03-06T05:44:57;58.58;;;31.10;;
51495;SDS011;37572;52.094;4.870;2024-03-06T05:47:25;59.45;;;31.02;;
51495;SDS011;37572;52.094;4.870;2024-03-06T05:49:51;60.05;;;31.50;;
51495;SDS011;37572;52.094;4.870;2024-03-06T05:52:17;59.13;;;32.97;;
51495;SDS011;37572;52.094;4.870;2024-03-06T05:54:42;61.78;;;33.25;;
51495;SDS011;37572;52.094;4.870;2024-03-06T05:57:08;63.65;;;33.60;;
51495;SDS011;37572;52.094;4.870;2024-03-06T05:59:33;60.13;;;32.23;;
51495;SDS011;37572;52.094;4.870;2024-03-06T06:01:58;56.87;;;29.77;;
51495;SDS011;37572;52.094;4.870;2024-03-06T06:04:24;60.60;;;30.70;;
51495;SDS011;37572;52.094;4.870;2024-03-06T06:06:50;58.13;;;30.13;;
51495;SDS011;37572;52.094;4.870;2024-03-06T06:09:16;59.28;;;32.38;;
51495;SDS011;37572;52.094;4.870;2024-03-06T06:11:42;56.38;;;31.08;;
51495;SDS011;37572;52.094;4.870;2024-03-06T06:14:08;57.20;;;30.98;;
51495;SDS011;37572;52.094;4.870;2024-03-06T06:16:37;57.53;;;29.95;;
51495;SDS011;37572;52.094;4.870;2024-03-06T06:19:03;64.35;;;30.25;;
51495;SDS011;37572;52.094;4.870;2024-03-06T06:21:29;56.15;;;30.70;;
51495;SDS011;37572;52.094;4.870;2024-03-06T06:23:55;55.90;;;30.55;;
51495;SDS011;37572;52.094;4.870;2024-03-06T06:26:21;53.30;;;29.90;;
51495;SDS011;37572;52.094;4.870;2024-03-06T06:28:46;64.00;;;29.92;;
51495;SDS011;37572;52.094;4.870;2024-03-06T06:31:11;57.53;;;30.43;;
51495;SDS011;37572;52.094;4.870;2024-03-06T06:33:37;54.25;;;30.42;;
51495;SDS011;37572;52.094;4.870;2024-03-06T06:36:02;53.90;;;29.77;;
51495;SDS011;37572;52.094;4.870;2024-03-06T06:38:27;55.22;;;30.95;;
51495;SDS011;37572;52.094;4.870;2024-03-06T06:40:53;56.17;;;30.50;;
51495;SDS011;37572;52.094;4.870;2024-03-06T06:43:18;54.10;;;29.80;;
51495;SDS011;37572;52.094;4.870;2024-03-06T06:45:43;58.93;;;30.10;;
51495;SDS011;37572;52.094;4.870;2024-03-06T06:48:09;52.22;;;33.92;;
51495;SDS011;37572;52.094;4.870;2024-03-06T06:50:34;60.50;;;31.30;;
51495;SDS011;37572;52.094;4.870;2024-03-06T06:53:00;70.22;;;31.75;;
51495;SDS011;37572;52.094;4.870;2024-03-06T06:55:26;55.13;;;30.35;;
51495;SDS011;37572;52.094;4.870;2024-03-06T06:57:51;63.00;;;33.45;;
51495;SDS011;37572;52.094;4.870;2024-03-06T07:00:17;56.80;;;31.42;;
51495;SDS011;37572;52.094;4.870;2024-03-06T07:02:43;63.65;;;32.38;;
51495;SDS011;37572;52.094;4.870;2024-03-06T07:05:10;64.93;;;32.67;;
51495;SDS011;37572;52.094;4.870;2024-03-06T07:07:36;60.83;;;32.88;;
51495;SDS011;37572;52.094;4.870;2024-03-06T07:10:02;69.47;;;33.45;;
51495;SDS011;37572;52.094;4.870;2024-03-06T07:12:29;64.32;;;33.13;;
51495;SDS011;37572;52.094;4.870;2024-03-06T07:14:55;62.97;;;34.15;;
51495;SDS011;37572;52.094;4.870;2024-03-06T07:17:20;59.42;;;33.67;;
51495;SDS011;37572;52.094;4.870;2024-03-06T07:19:46;63.63;;;35.17;;
51495;SDS011;37572;52.094;4.870;2024-03-06T07:22:11;56.58;;;35.20;;
51495;SDS011;37572;52.094;4.870;2024-03-06T07:24:37;62.45;;;33.83;;
51495;SDS011;37572;52.094;4.870;2024-03-06T07:27:02;63.10;;;33.75;;
51495;SDS011;37572;52.094;4.870;2024-03-06T07:29:28;58.97;;;34.05;;
51495;SDS011;37572;52.094;4.870;2024-03-06T07:31:53;69.90;;;34.92;;
51495;SDS011;37572;52.094;4.870;2024-03-06T07:34:19;66.43;;;36.20;;
51495;SDS011;37572;52.094;4.870;2024-03-06T07:36:46;67.93;;;35.90;;
51495;SDS011;37572;52.094;4.870;2024-03-06T07:39:11;79.30;;;36.57;;
51495;SDS011;37572;52.094;4.870;2024-03-06T07:41:37;76.32;;;37.38;;
51495;SDS011;37572;52.094;4.870;2024-03-06T07:44:02;62.05;;;32.53;;
51495;SDS011;37572;52.094;4.870;2024-03-06T07:46:28;77.93;;;38.40;;
51495;SDS011;37572;52.094;4.870;2024-03-06T07:48:53;71.18;;;36.25;;
51495;SDS011;37572;52.094;4.870;2024-03-06T07:51:19;70.88;;;37.97;;
51495;SDS011;37572;52.094;4.870;2024-03-06T07:53:45;68.85;;;36.50;;
51495;SDS011;37572;52.094;4.870;2024-03-06T07:56:11;70.30;;;36.88;;
51495;SDS011;37572;52.094;4.870;2024-03-06T07:58:36;76.05;;;38.30;;
51495;SDS011;37572;52.094;4.870;2024-03-06T08:01:02;73.20;;;39.80;;
51495;SDS011;37572;52.094;4.870;2024-03-06T08:03:27;74.20;;;38.35;;
51495;SDS011;37572;52.094;4.870;2024-03-06T08:05:53;65.40;;;36.80;;
51495;SDS011;37572;52.094;4.870;2024-03-06T08:08:19;66.47;;;36.92;;
51495;SDS011;37572;52.094;4.870;2024-03-06T08:10:44;69.78;;;36.28;;
51495;SDS011;37572;52.094;4.870;2024-03-06T08:13:10;66.30;;;33.88;;
51495;SDS011;37572;52.094;4.870;2024-03-06T08:15:35;62.75;;;33.05;;
51495;SDS011;37572;52.094;4.870;2024-03-06T08:18:00;66.53;;;38.13;;
51495;SDS011;37572;52.094;4.870;2024-03-06T08:20:26;64.23;;;34.23;;
51495;SDS011;37572;52.094;4.870;2024-03-06T08:22:53;58.20;;;32.95;;
51495;SDS011;37572;52.094;4.870;2024-03-06T08:25:18;59.43;;;34.17;;
51495;SDS011;37572;52.094;4.870;2024-03-06T08:27:43;62.90;;;36.23;;
51495;SDS011;37572;52.094;4.870;2024-03-06T08:30:09;62.92;;;33.72;;
51495;SDS011;37572;52.094;4.870;2024-03-06T08:32:35;65.00;;;34.72;;
51495;SDS011;37572;52.094;4.870;2024-03-06T08:35:06;65.20;;;35.28;;
51495;SDS011;37572;52.094;4.870;2024-03-06T08:37:36;64.07;;;35.42;;
51495;SDS011;37572;52.094;4.870;2024-03-06T08:40:02;69.60;;;38.42;;
51495;SDS011;37572;52.094;4.870;2024-03-06T08:42:28;62.20;;;35.03;;
51495;SDS011;37572;52.094;4.870;2024-03-06T08:44:53;62.47;;;32.90;;
51495;SDS011;37572;52.094;4.870;2024-03-06T08:47:19;60.80;;;34.80;;
51495;SDS011;37572;52.094;4.870;2024-03-06T08:49:44;66.10;;;35.53;;
51495;SDS011;37572;52.094;4.870;2024-03-06T08:52:10;69.00;;;40.42;;
51495;SDS011;37572;52.094;4.870;2024-03-06T08:54:36;67.53;;;35.13;;
51495;SDS011;37572;52.094;4.870;2024-03-06T08:57:02;60.70;;;36.15;;
51495;SDS011;37572;52.094;4.870;2024-03-06T08:59:28;63.63;;;35.47;;
51495;SDS011;37572;52.094;4.870;2024-03-06T09:01:54;56.88;;;33.38;;
51495;SDS011;37572;52.094;4.870;2024-03-06T09:04:21;55.08;;;32.25;;
51495;SDS011;37572;52.094;4.870;2024-03-06T09:06:46;50.08;;;30.75;;
51495;SDS011;37572;52.094;4.870;2024-03-06T09:09:11;50.27;;;29.57;;
51495;SDS011;37572;52.094;4.870;2024-03-06T09:11:39;52.53;;;32.47;;
51495;SDS011;37572;52.094;4.870;2024-03-06T09:14:05;45.03;;;28.15;;
51495;SDS011;37572;52.094;4.870;2024-03-06T09:16:30;44.57;;;28.83;;
51495;SDS011;37572;52.094;4.870;2024-03-06T09:18:56;47.35;;;29.48;;
51495;SDS011;37572;52.094;4.870;2024-03-06T09:21:21;50.57;;;31.80;;
51495;SDS011;37572;52.094;4.870;2024-03-06T09:23:47;50.55;;;31.02;;
51495;SDS011;37572;52.094;4.870;2024-03-06T09:26:16;53.00;;;30.88;;
51495;SDS011;37572;52.094;4.870;2024-03-06T09:28:41;52.72;;;32.70;;
51495;SDS011;37572;52.094;4.870;2024-03-06T09:31:07;53.78;;;30.30;;
51495;SDS011;37572;52.094;4.870;2024-03-06T09:33:32;49.30;;;29.53;;
51495;SDS011;37572;52.094;4.870;2024-03-06T09:35:58;53.45;;;32.53;;
51495;SDS011;37572;52.094;4.870;2024-03-06T09:38:24;53.97;;;32.00;;
51495;SDS011;37572;52.094;4.870;2024-03-06T09:40:49;51.10;;;32.08;;
51495;SDS011;37572;52.094;4.870;2024-03-06T09:43:16;56.00;;;32.17;;
51495;SDS011;37572;52.094;4.870;2024-03-06T09:45:42;52.28;;;32.65;;
51495;SDS011;37572;52.094;4.870;2024-03-06T09:48:13;51.03;;;30.08;;
51495;SDS011;37572;52.094;4.870;2024-03-06T09:50:38;54.47;;;31.65;;
51495;SDS011;37572;52.094;4.870;2024-03-06T09:53:10;50.95;;;29.83;;
51495;SDS011;37572;52.094;4.870;2024-03-06T09:55:39;50.97;;;29.40;;
51495;SDS011;37572;52.094;4.870;2024-03-06T09:58:06;54.90;;;31.85;;
51495;SDS011;37572;52.094;4.870;2024-03-06T10:00:33;57.08;;;32.70;;
51495;SDS011;37572;52.094;4.870;2024-03-06T10:02:59;51.80;;;32.42;;
51495;SDS011;37572;52.094;4.870;2024-03-06T10:05:28;55.10;;;33.05;;
51495;SDS011;37572;52.094;4.870;2024-03-06T10:07:55;54.05;;;34.13;;
51495;SDS011;37572;52.094;4.870;2024-03-06T10:10:20;49.30;;;34.08;;
51495;SDS011;37572;52.094;4.870;2024-03-06T10:12:49;46.67;;;30.90;;
51495;SDS011;37572;52.094;4.870;2024-03-06T10:15:14;43.08;;;27.00;;
51495;SDS011;37572;52.094;4.870;2024-03-06T10:17:40;36.33;;;21.85;;
51495;SDS011;37572;52.094;4.870;2024-03-06T10:20:16;31.60;;;20.77;;
51495;SDS011;37572;52.094;4.870;2024-03-06T10:22:41;29.55;;;21.77;;
51495;SDS011;37572;52.094;4.870;2024-03-06T10:25:08;40.95;;;25.40;;
51495;SDS011;37572;52.094;4.870;2024-03-06T10:27:34;40.03;;;27.00;;
51495;SDS011;37572;52.094;4.870;2024-03-06T10:30:00;36.00;;;26.50;;
51495;SDS011;37572;52.094;4.870;2024-03-06T10:32:27;37.13;;;23.65;;
51495;SDS011;37572;52.094;4.870;2024-03-06T10:34:52;44.47;;;28.60;;
51495;SDS011;37572;52.094;4.870;2024-03-06T10:37:17;46.00;;;29.00;;
51495;SDS011;37572;52.094;4.870;2024-03-06T10:39:46;40.50;;;26.50;;
51495;SDS011;37572;52.094;4.870;2024-03-06T10:42:17;40.55;;;26.83;;
51495;SDS011;37572;52.094;4.870;2024-03-06T10:44:47;39.47;;;26.05;;
51495;SDS011;37572;52.094;4.870;2024-03-06T10:47:17;40.00;;;26.50;;
51495;SDS011;37572;52.094;4.870;2024-03-06T10:49:44;34.63;;;22.63;;
51495;SDS011;37572;52.094;4.870;2024-03-06T10:52:10;36.40;;;25.13;;
51495;SDS011;37572;52.094;4.870;2024-03-06T10:54:36;36.70;;;22.48;;
51495;SDS011;37572;52.094;4.870;2024-03-06T10:57:07;34.95;;;23.50;;
51495;SDS011;37572;52.094;4.870;2024-03-06T10:59:33;37.95;;;23.10;;
51495;SDS011;37572;52.094;4.870;2024-03-06T11:02:00;32.58;;;22.52;;
51495;SDS011;37572;52.094;4.870;2024-03-06T11:04:26;32.13;;;21.25;;
51495;SDS011;37572;52.094;4.870;2024-03-06T11:06:53;35.70;;;22.25;;
51495;SDS011;37572;52.094;4.870;2024-03-06T11:09:24;28.60;;;18.98;;
51495;SDS011;37572;52.094;4.870;2024-03-06T11:11:52;29.02;;;18.02;;
51495;SDS011;37572;52.094;4.870;2024-03-06T11:14:18;26.02;;;17.48;;
51495;SDS011;37572;52.094;4.870;2024-03-06T11:16:56;24.33;;;15.90;;
51495;SDS011;37572;52.094;4.870;2024-03-06T11:19:24;25.27;;;15.13;;
51495;SDS011;37572;52.094;4.870;2024-03-06T11:21:50;26.08;;;16.83;;
51495;SDS011;37572;52.094;4.870;2024-03-06T11:24:22;22.63;;;14.00;;
51495;SDS011;37572;52.094;4.870;2024-03-06T11:26:55;23.00;;;14.07;;
51495;SDS011;37572;52.094;4.870;2024-03-06T11:29:27;19.85;;;12.70;;
51495;SDS011;37572;52.094;4.870;2024-03-06T11:31:59;18.92;;;13.02;;
51495;SDS011;37572;52.094;4.870;2024-03-06T11:34:26;20.23;;;12.70;;
51495;SDS011;37572;52.094;4.870;2024-03-06T11:36:56;18.50;;;11.43;;
51495;SDS011;37572;52.094;4.870;2024-03-06T11:39:22;15.80;;;11.30;;
51495;SDS011;37572;52.094;4.870;2024-03-06T11:41:48;20.48;;;13.80;;
51495;SDS011;37572;52.094;4.870;2024-03-06T11:44:15;18.38;;;11.95;;
51495;SDS011;37572;52.094;4.870;2024-03-06T11:46:45;16.05;;;10.27;;
51495;SDS011;37572;52.094;4.870;2024-03-06T11:49:17;15.32;;;11.48;;
51495;SDS011;37572;52.094;4.870;2024-03-06T11:51:45;19.27;;;11.90;;
51495;SDS011;37572;52.094;4.870;2024-03-06T11:54:12;16.73;;;11.25;;
51495;SDS011;37572;52.094;4.870;2024-03-06T11:56:41;19.60;;;12.32;;
51495;SDS011;37572;52.094;4.870;2024-03-06T11:59:09;15.00;;;9.48;;
51495;SDS011;37572;52.094;4.870;2024-03-06T12:01:35;17.58;;;11.25;;
51495;SDS011;37572;52.094;4.870;2024-03-06T12:04:02;19.25;;;12.07;;
51495;SDS011;37572;52.094;4.870;2024-03-06T12:06:29;17.10;;;10.43;;
51495;SDS011;37572;52.094;4.870;2024-03-06T12:08:55;15.88;;;10.68;;
51495;SDS011;37572;52.094;4.870;2024-03-06T12:11:20;15.10;;;10.47;;
51495;SDS011;37572;52.094;4.870;2024-03-06T12:13:50;19.27;;;13.02;;
51495;SDS011;37572;52.094;4.870;2024-03-06T12:16:16;16.45;;;10.27;;
51495;SDS011;37572;52.094;4.870;2024-03-06T12:18:42;17.67;;;12.95;;
51495;SDS011;37572;52.094;4.870;2024-03-06T12:21:07;17.60;;;11.80;;
51495;SDS011;37572;52.094;4.870;2024-03-06T12:23:32;19.27;;;10.80;;
51495;SDS011;37572;52.094;4.870;2024-03-06T12:28:30;14.60;;;11.20;;
51495;SDS011;37572;52.094;4.870;2024-03-06T12:30:55;13.67;;;9.70;;
51495;SDS011;37572;52.094;4.870;2024-03-06T12:33:23;16.75;;;10.35;;
51495;SDS011;37572;52.094;4.870;2024-03-06T12:35:58;13.57;;;9.90;;
51495;SDS011;37572;52.094;4.870;2024-03-06T12:38:28;18.88;;;11.63;;
51495;SDS011;37572;52.094;4.870;2024-03-06T12:40:54;13.38;;;9.52;;
51495;SDS011;37572;52.094;4.870;2024-03-06T12:43:20;15.48;;;11.18;;
51495;SDS011;37572;52.094;4.870;2024-03-06T12:45:45;13.43;;;9.27;;
51495;SDS011;37572;52.094;4.870;2024-03-06T12:48:10;16.02;;;10.60;;
51495;SDS011;37572;52.094;4.870;2024-03-06T12:50:37;11.82;;;7.70;;
51495;SDS011;37572;52.094;4.870;2024-03-06T12:53:02;13.50;;;9.53;;
51495;SDS011;37572;52.094;4.870;2024-03-06T12:55:29;13.68;;;9.68;;
51495;SDS011;37572;52.094;4.870;2024-03-06T12:57:56;10.95;;;8.23;;
51495;SDS011;37572;52.094;4.870;2024-03-06T13:00:21;13.13;;;10.30;;
51495;SDS011;37572;52.094;4.870;2024-03-06T13:02:47;14.35;;;10.57;;
51495;SDS011;37572;52.094;4.870;2024-03-06T13:05:13;12.02;;;9.77;;
51495;SDS011;37572;52.094;4.870;2024-03-06T13:07:38;8.55;;;6.43;;
51495;SDS011;37572;52.094;4.870;2024-03-06T13:10:04;7.63;;;5.07;;
51495;SDS011;37572;52.094;4.870;2024-03-06T13:12:30;9.40;;;7.00;;
51495;SDS011;37572;52.094;4.870;2024-03-06T13:14:55;12.30;;;8.93;;
51495;SDS011;37572;52.094;4.870;2024-03-06T13:17:21;10.35;;;8.57;;
51495;SDS011;37572;52.094;4.870;2024-03-06T13:19:46;11.73;;;9.73;;
51495;SDS011;37572;52.094;4.870;2024-03-06T13:22:12;11.67;;;9.27;;
51495;SDS011;37572;52.094;4.870;2024-03-06T13:24:37;8.60;;;7.70;;
51495;SDS011;37572;52.094;4.870;2024-03-06T13:27:03;8.75;;;7.35;;
51495;SDS011;37572;52.094;4.870;2024-03-06T13:29:28;8.55;;;6.88;;
51495;SDS011;37572;52.094;4.870;2024-03-06T13:31:54;13.10;;;9.95;;
51495;SDS011;37572;52.094;4.870;2024-03-06T13:34:19;14.32;;;10.50;;
51495;SDS011;37572;52.094;4.870;2024-03-06T13:36:44;13.30;;;10.13;;
51495;SDS011;37572;52.094;4.870;2024-03-06T13:39:10;13.23;;;10.30;;
51495;SDS011;37572;52.094;4.870;2024-03-06T13:41:35;15.10;;;10.40;;
51495;SDS011;37572;52.094;4.870;2024-03-06T13:44:00;13.20;;;9.77;;
51495;SDS011;37572;52.094;4.870;2024-03-06T13:46:25;13.47;;;10.60;;
51495;SDS011;37572;52.094;4.870;2024-03-06T13:48:51;13.63;;;9.77;;
51495;SDS011;37572;52.094;4.870;2024-03-06T13:51:16;14.00;;;9.90;;
51495;SDS011;37572;52.094;4.870;2024-03-06T13:53:41;13.60;;;9.55;;
51495;SDS011;37572;52.094;4.870;2024-03-06T13:56:07;11.60;;;8.70;;
51495;SDS011;37572;52.094;4.870;2024-03-06T13:58:33;14.38;;;9.77;;
51495;SDS011;37572;52.094;4.870;2024-03-06T14:00:58;12.18;;;8.52;;
51495;SDS011;37572;52.094;4.870;2024-03-06T14:03:24;12.57;;;8.77;;
51495;SDS011;37572;52.094;4.870;2024-03-06T14:05:50;12.25;;;8.48;;
51495;SDS011;37572;52.094;4.870;2024-03-06T14:08:16;13.63;;;8.90;;
51495;SDS011;37572;52.094;4.870;2024-03-06T14:10:42;10.15;;;7.90;;
51495;SDS011;37572;52.094;4.870;2024-03-06T14:13:07;11.50;;;7.43;;
51495;SDS011;37572;52.094;4.870;2024-03-06T14:15:33;10.95;;;7.63;;
51495;SDS011;37572;52.094;4.870;2024-03-06T14:17:59;10.40;;;7.15;;
51495;SDS011;37572;52.094;4.870;2024-03-06T14:20:26;10.73;;;6.97;;